Mostly Cloudy Current Weather (METAR) For Innsbruck - Kranebitten Airport

All times on the weather descriptions are local

Observed at 11:50 - (22 mins ago)

Mostly Cloudy

4°C

Mostly Cloudy
Clouds: Few Clouds at 1,800ft, Broken Clouds at 4,000ft
Wind: Variable at 02 knots
Visibility: Greater than 10km
QNH: 1024
Dew Point: 0°C
Runway in Use: Unable to determine, wind is variable

Sunrise Today: 06:47
Sunset Today: 18:05

Forecast Weather (TAF) For Innsbruck - Kranebitten Airport

Issued at 01:00 - (27 days ago)


Runway in Use: Unable to determine, wind is clam

Forecast valid until 01:00 on Tuesday

METAR/TAF RAW METAR / TAF

LOWI 041050Z VRB02KT 9999 FEW018 BKN040 04/00 Q1024 R08/2///95 NOSIG

Weather Widget

Put weather from any of our airports on your website with our weather widget.

Find Another Search

Airport Search


Please Wait Please Wait - Loading
Close
Close

Login

Username:

Password:

Remember Me:

Remember me on this computer

Forgotten your password? Get a reset password sent to your registered e-mail address

Close

User Private Message

Subject:

Message: